Time;durP1;ratioP1;P1;durP2;ratioP2;P2;SDS_P1;SDS_P2;PMS_P1;PMS_P2;Temp;Humidity;BMP_temperature;BMP_pressure;BME280_temperature;BME280_humidity;BME280_pressure;Samples;Min_cycle;Max_cycle;Signal;HPM_P1;HPM_P2
2022/03/11 00:00:11;;;;;;;11.47;6.63;;;;;;;-4.17;91.86;97656.13;5075446;28;20824;-37
2022/03/11 00:02:39;;;;;;;19.23;9.03;;;;;;;-4.13;92.02;97654.94;5075683;28;20515;-38
2022/03/11 00:05:08;;;;;;;17.57;7.27;;;;;;;-4.19;92.29;97650.25;5075686;28;20444;-37
2022/03/11 00:07:35;;;;;;;14.37;8.43;;;;;;;-4.21;93.01;97659.09;5075528;28;20549;-37
2022/03/11 00:10:02;;;;;;;15.73;7.83;;;;;;;-4.20;92.66;97655.56;5075217;28;20451;-38
2022/03/11 00:12:29;;;;;;;16.37;7.60;;;;;;;-4.22;91.32;97653.06;5075257;28;20950;-37
2022/03/11 00:14:57;;;;;;;20.43;7.60;;;;;;;-4.21;90.87;97654.72;5075388;28;20470;-37
2022/03/11 00:17:24;;;;;;;14.50;7.40;;;;;;;-4.33;90.26;97661.69;5075051;28;20438;-38
2022/03/11 00:19:53;;;;;;;11.53;6.60;;;;;;;-4.27;90.95;97650.03;5075941;28;20509;-39
2022/03/11 00:22:20;;;;;;;10.10;7.37;;;;;;;-4.31;91.24;97664.19;5074778;28;20529;-37
2022/03/11 00:24:47;;;;;;;12.47;6.80;;;;;;;-4.45;86.72;97656.66;5075300;28;20447;-38
2022/03/11 00:27:14;;;;;;;14.13;7.83;;;;;;;-4.41;84.91;97658.06;5074859;28;20487;-37
2022/03/11 00:29:42;;;;;;;9.33;6.23;;;;;;;-4.45;83.88;97673.06;5074909;28;20864;-37
2022/03/11 00:32:10;;;;;;;8.17;5.70;;;;;;;-4.43;82.37;97655.63;5075226;28;20447;-37
2022/03/11 00:34:37;;;;;;;11.40;6.33;;;;;;;-4.42;81.27;97651.25;5074732;28;20439;-36
2022/03/11 00:37:05;;;;;;;21.67;6.60;;;;;;;-4.44;81.47;97658.31;5075002;28;20446;-36
2022/03/11 00:39:33;;;;;;;12.80;6.83;;;;;;;-4.47;79.74;97663.72;5075016;28;20637;-36
2022/03/11 00:42:00;;;;;;;22.03;6.57;;;;;;;-4.49;79.31;97657.88;5074725;28;20455;-37
2022/03/11 00:44:27;;;;;;;14.67;6.83;;;;;;;-4.49;79.00;97665.66;5074582;28;20448;-37
2022/03/11 00:46:54;;;;;;;17.63;7.67;;;;;;;-4.45;78.44;97654.06;5074460;28;20515;-37
2022/03/11 00:49:22;;;;;;;7.80;6.17;;;;;;;-4.50;77.82;97661.41;5074499;28;20935;-36
2022/03/11 00:51:50;;;;;;;21.47;7.60;;;;;;;-4.56;75.92;97660.09;5074454;28;20448;-36
2022/03/11 00:54:18;;;;;;;7.00;5.00;;;;;;;-4.66;75.39;97660.00;5074406;28;20440;-37
2022/03/11 00:56:45;;;;;;;10.00;5.13;;;;;;;-4.69;75.37;97664.59;5074340;28;20444;-37
2022/03/11 00:59:13;;;;;;;6.80;4.87;;;;;;;-4.70;75.51;97666.38;5074344;28;20454;-38
2022/03/11 01:01:40;;;;;;;13.90;5.30;;;;;;;-4.69;75.90;97655.03;5074192;28;20440;-38
2022/03/11 01:04:07;;;;;;;9.20;5.90;;;;;;;-4.78;76.70;97655.78;5074086;28;20458;-39
2022/03/11 01:06:35;;;;;;;11.70;4.83;;;;;;;-4.69;77.82;97670.59;5074005;28;20494;-38
2022/03/11 01:09:05;;;;;;;7.80;5.70;;;;;;;-4.67;77.23;97660.94;5074085;28;20954;-39
2022/03/11 01:11:34;;;;;;;10.03;6.13;;;;;;;-4.64;77.36;97667.66;5074381;28;20443;-38
2022/03/11 01:14:01;;;;;;;11.37;5.97;;;;;;;-4.69;77.64;97660.22;5074035;28;20448;-39
2022/03/11 01:16:28;;;;;;;11.70;6.70;;;;;;;-4.66;76.33;97670.38;5073961;28;20455;-37
2022/03/11 01:18:56;;;;;;;8.90;5.07;;;;;;;-4.80;75.77;97647.28;5074241;28;20447;-39
2022/03/11 01:21:23;;;;;;;12.00;6.97;;;;;;;-4.70;75.78;97662.97;5073571;28;20997;-38
2022/03/11 01:23:50;;;;;;;4.27;3.60;;;;;;;-4.76;75.32;97669.44;5074141;28;20436;-39
2022/03/11 01:26:18;;;;;;;8.00;5.83;;;;;;;-4.84;76.63;97666.59;5073719;28;21005;-38
2022/03/11 01:28:46;;;;;;;8.50;4.90;;;;;;;-4.82;77.56;97675.09;5073753;28;20527;-38
2022/03/11 01:31:16;;;;;;;18.43;5.80;;;;;;;-4.90;78.23;97682.63;5074511;28;20785;-38
2022/03/11 01:33:44;;;;;;;14.93;4.60;;;;;;;-4.91;78.70;97666.25;5073915;28;20977;-39
2022/03/11 01:36:12;;;;;;;9.73;4.50;;;;;;;-4.91;79.57;97666.25;5073704;28;20440;-39
2022/03/11 01:38:41;;;;;;;9.87;4.90;;;;;;;-4.84;80.61;97684.75;5073666;28;20447;-39
2022/03/11 01:41:09;;;;;;;7.90;4.30;;;;;;;-4.85;80.72;97680.50;5073630;28;20451;-38
2022/03/11 01:46:30;;;;;;;7.90;4.73;;;;;;;-4.92;80.66;97674.16;5112386;27;20897;-37
2022/03/11 01:48:58;;;;;;;11.60;5.83;;;;;;;-4.91;81.35;97670.63;5111299;28;20454;-36
2022/03/11 01:51:27;;;;;;;12.30;6.30;;;;;;;-4.92;81.25;97664.63;5111570;28;20442;-36
2022/03/11 01:53:55;;;;;;;8.80;5.67;;;;;;;-4.89;81.37;97668.75;5111524;28;20806;-36
2022/03/11 01:56:23;;;;;;;5.30;4.80;;;;;;;-4.89;81.03;97679.09;5111500;28;20456;-37
2022/03/11 01:58:52;;;;;;;10.90;6.40;;;;;;;-4.88;81.16;97666.03;5111223;28;20503;-38
2022/03/11 02:01:20;;;;;;;8.73;3.70;;;;;;;-4.85;80.18;97665.78;5111072;28;20438;-39
2022/03/11 02:03:49;;;;;;;6.77;4.57;;;;;;;-4.84;78.60;97684.75;5111098;28;20438;-38
2022/03/11 02:06:17;;;;;;;11.10;5.23;;;;;;;-4.83;77.86;97665.69;5110940;28;20486;-37
2022/03/11 02:08:44;;;;;;;12.60;5.80;;;;;;;-4.87;76.89;97672.03;5110965;28;20444;-37
2022/03/11 02:11:12;;;;;;;8.27;5.33;;;;;;;-4.91;77.27;97670.63;5111010;28;20453;-37
2022/03/11 02:13:44;;;;;;;13.00;4.60;;;;;;;-4.99;76.54;97666.88;5110859;28;20446;-39
2022/03/11 02:16:13;;;;;;;6.60;4.70;;;;;;;-4.99;76.73;97671.19;5110857;28;20926;-37
2022/03/11 02:18:40;;;;;;;8.97;5.30;;;;;;;-5.00;77.75;97672.16;5111114;28;20453;-38
2022/03/11 02:21:10;;;;;;;8.17;6.03;;;;;;;-4.98;77.64;97675.44;5111049;28;20474;-38
2022/03/11 02:23:44;;;;;;;15.13;5.90;;;;;;;-4.97;77.51;97666.72;5111551;28;20525;-37
2022/03/11 02:26:11;;;;;;;10.23;5.23;;;;;;;-4.97;77.02;97670.16;5110575;28;20485;-38
2022/03/11 02:28:38;;;;;;;11.73;4.17;;;;;;;-5.10;74.87;97656.47;5110624;28;20446;-39
2022/03/11 02:31:06;;;;;;;10.63;6.40;;;;;;;-5.06;74.60;97665.66;5110856;28;20450;-36
2022/03/11 02:33:33;;;;;;;8.23;4.47;;;;;;;-5.05;73.68;97669.91;5110862;28;20777;-37
2022/03/11 02:36:00;;;;;;;10.80;5.00;;;;;;;-5.08;72.55;97674.50;5110496;28;20453;-37
2022/03/11 02:38:28;;;;;;;6.83;3.73;;;;;;;-5.09;73.46;97673.69;5110440;28;20438;-38
2022/03/11 02:40:57;;;;;;;11.87;3.53;;;;;;;-5.17;74.06;97666.47;5110699;28;20451;-38
2022/03/11 02:43:26;;;;;;;7.70;3.90;;;;;;;-5.09;73.17;97671.09;5110372;28;20929;-38
2022/03/11 02:45:53;;;;;;;9.07;5.03;;;;;;;-5.07;72.10;97678.75;5109951;28;20893;-38
2022/03/11 02:48:21;;;;;;;7.97;4.20;;;;;;;-5.08;72.17;97682.25;5110174;28;20439;-38
2022/03/11 02:50:48;;;;;;;8.73;4.60;;;;;;;-5.13;71.55;97679.22;5110266;28;20921;-37
2022/03/11 02:53:15;;;;;;;5.77;3.50;;;;;;;-5.15;70.76;97684.50;5110159;28;20445;-38
2022/03/11 02:55:42;;;;;;;8.77;4.00;;;;;;;-5.17;70.81;97676.03;5108857;28;20449;-37
2022/03/11 02:58:11;;;;;;;5.90;3.73;;;;;;;-5.16;70.76;97688.84;5096162;28;20439;-37
2022/03/11 03:00:38;;;;;;;8.07;4.27;;;;;;;-5.12;69.86;97693.78;5096684;28;20435;-36
2022/03/11 03:03:06;;;;;;;6.93;4.27;;;;;;;-5.13;70.39;97687.78;5096669;28;20450;-37
2022/03/11 03:05:33;;;;;;;6.37;3.47;;;;;;;-5.12;69.15;97689.44;5096213;28;20517;-37
2022/03/11 03:08:01;;;;;;;5.07;3.03;;;;;;;-5.14;69.70;97686.16;5096575;28;20447;-37
2022/03/11 03:10:28;;;;;;;5.40;4.10;;;;;;;-5.21;68.68;97677.19;5096463;28;20447;-39
2022/03/11 03:12:56;;;;;;;11.63;3.73;;;;;;;-5.17;68.14;97686.38;5096195;28;20451;-37
2022/03/11 03:15:24;;;;;;;23.80;5.33;;;;;;;-5.19;67.95;97693.44;5096132;28;20922;-36
2022/03/11 03:17:52;;;;;;;12.43;4.93;;;;;;;-5.27;68.13;97690.59;5096428;28;20796;-38
2022/03/11 03:20:19;;;;;;;3.50;2.90;;;;;;;-5.26;68.38;97692.25;5096060;28;20439;-35
2022/03/11 03:22:46;;;;;;;6.30;4.20;;;;;;;-5.27;68.70;97695.78;5095956;28;20918;-35
2022/03/11 03:25:13;;;;;;;8.47;5.53;;;;;;;-5.26;67.75;97700.03;5095860;28;20497;-36
2022/03/11 03:27:41;;;;;;;9.60;4.77;;;;;;;-5.38;67.29;97683.63;5096241;28;20918;-37
2022/03/11 03:30:09;;;;;;;5.00;3.07;;;;;;;-5.28;67.39;97699.31;5095827;28;20451;-37
2022/03/11 03:32:41;;;;;;;6.93;4.30;;;;;;;-5.36;66.74;97703.28;5095812;28;20443;-38
2022/03/11 03:35:10;;;;;;;6.07;3.77;;;;;;;-5.36;66.91;97698.09;5095791;28;20427;-36
2022/03/11 03:37:37;;;;;;;5.77;5.27;;;;;;;-5.38;68.22;97694.81;5096043;28;20805;-36
2022/03/11 03:40:07;;;;;;;8.23;5.00;;;;;;;-5.41;69.04;97697.63;5095616;28;20438;-36
2022/03/11 03:42:34;;;;;;;7.43;3.53;;;;;;;-5.37;69.91;97701.63;5095973;28;20442;-37
2022/03/11 03:45:01;;;;;;;48.07;21.27;;;;;;;-5.35;70.08;97699.75;5095279;28;20494;-35
2022/03/11 03:47:28;;;;;;;21.13;12.77;;;;;;;-5.35;69.72;97694.59;5095511;28;20808;-36
2022/03/11 03:49:57;;;;;;;16.17;7.80;;;;;;;-5.40;70.17;97696.72;5095542;28;20435;-35
2022/03/11 03:52:24;;;;;;;27.97;12.63;;;;;;;-5.38;70.39;97710.38;5095365;28;20442;-39
2022/03/11 03:54:51;;;;;;;16.47;10.23;;;;;;;-5.37;70.65;97706.81;5095713;28;20447;-36
2022/03/11 03:57:19;;;;;;;14.07;8.37;;;;;;;-5.33;71.08;97704.00;5095608;28;20926;-36
2022/03/11 03:59:46;;;;;;;12.93;9.00;;;;;;;-5.33;70.83;97702.25;5095511;28;20443;-36
2022/03/11 04:02:13;;;;;;;11.47;8.90;;;;;;;-5.48;70.22;97687.88;5095535;28;20438;-39
2022/03/11 04:04:41;;;;;;;20.43;11.43;;;;;;;-5.46;70.01;97706.66;5095166;28;20457;-37
2022/03/11 04:07:10;;;;;;;24.50;12.73;;;;;;;-5.40;71.79;97701.88;5095395;28;20487;-39
2022/03/11 04:09:37;;;;;;;21.17;13.67;;;;;;;-5.38;70.63;97700.00;5094465;28;20809;-35
2022/03/11 04:12:05;;;;;;;18.53;11.87;;;;;;;-5.41;71.03;97702.81;5095057;28;20443;-35
2022/03/11 04:14:32;;;;;;;13.97;11.30;;;;;;;-5.45;71.55;97708.31;5094946;28;20443;-36
2022/03/11 04:16:59;;;;;;;15.97;7.37;;;;;;;-5.51;71.16;97695.84;5095266;28;20461;-36
2022/03/11 04:19:26;;;;;;;11.27;5.87;;;;;;;-5.54;71.57;97709.84;5094911;28;20810;-37
2022/03/11 04:21:54;;;;;;;8.97;5.83;;;;;;;-5.56;72.08;97711.72;5094851;28;20445;-35
2022/03/11 04:24:23;;;;;;;14.67;7.07;;;;;;;-5.60;72.61;97707.69;5094844;28;20870;-35
2022/03/11 04:26:50;;;;;;;9.60;5.50;;;;;;;-5.63;71.93;97706.16;5094662;28;21060;-36
2022/03/11 04:29:18;;;;;;;9.00;5.10;;;;;;;-5.63;72.36;97716.50;5094979;28;20447;-37
2022/03/11 04:31:46;;;;;;;12.90;5.80;;;;;;;-5.58;72.96;97716.16;5094554;28;20505;-37
2022/03/11 04:34:13;;;;;;;7.90;5.37;;;;;;;-5.58;73.56;97729.94;5094916;28;20443;-38
2022/03/11 04:36:40;;;;;;;79.27;30.77;;;;;;;-5.57;74.58;97715.22;5094471;28;20439;-36
2022/03/11 04:39:08;;;;;;;26.70;17.20;;;;;;;-5.54;73.90;97714.19;5094780;28;20564;-37
2022/03/11 04:41:37;;;;;;;16.13;7.17;;;;;;;-5.52;73.57;97727.84;5094399;28;20456;-37
2022/03/11 04:44:05;;;;;;;15.87;9.20;;;;;;;-5.56;73.81;97719.47;5094456;28;20439;-38
2022/03/11 04:46:32;;;;;;;8.07;7.23;;;;;;;-5.50;72.65;97731.97;5094252;28;20565;-38
2022/03/11 04:49:00;;;;;;;18.57;12.27;;;;;;;-5.50;71.86;97720.78;5094558;28;20443;-38
2022/03/11 04:51:27;;;;;;;11.90;5.90;;;;;;;-5.53;71.29;97716.66;5094134;28;20443;-38
2022/03/11 04:53:55;;;;;;;7.50;4.33;;;;;;;-5.54;71.99;97727.94;5094117;28;20443;-38
2022/03/11 04:56:22;;;;;;;12.77;5.60;;;;;;;-5.69;72.18;97726.47;5094437;28;21028;-35
2022/03/11 04:58:50;;;;;;;9.57;7.07;;;;;;;-5.67;73.06;97729.78;5094070;28;20446;-37
2022/03/11 05:01:18;;;;;;;8.10;5.53;;;;;;;-5.64;72.54;97726.97;5093994;28;20447;-37
2022/03/11 05:03:45;;;;;;;9.37;5.80;;;;;;;-5.70;72.95;97730.84;5094288;28;20447;-37
2022/03/11 05:06:12;;;;;;;8.57;4.63;;;;;;;-5.61;74.21;97729.34;5094178;28;20497;-38
2022/03/11 05:08:39;;;;;;;7.10;3.17;;;;;;;-5.57;73.22;97723.81;5093856;28;20482;-37
2022/03/11 05:11:07;;;;;;;12.10;6.23;;;;;;;-5.62;72.11;97723.31;5093896;28;20797;-37
2022/03/11 05:13:34;;;;;;;4.77;4.37;;;;;;;-5.58;72.69;97736.88;5094025;28;20466;-37
2022/03/11 05:16:03;;;;;;;7.43;6.00;;;;;;;-5.63;73.21;97732.03;5093786;28;20439;-38
2022/03/11 05:18:30;;;;;;;7.97;4.80;;;;;;;-5.59;73.04;97750.75;5094025;28;20458;-37
2022/03/11 05:20:57;;;;;;;10.37;6.37;;;;;;;-5.59;72.70;97743.00;5094084;28;20431;-36
2022/03/11 05:23:25;;;;;;;8.50;4.77;;;;;;;-5.57;72.23;97736.78;5094022;28;20457;-38
2022/03/11 05:25:52;;;;;;;8.87;5.47;;;;;;;-5.56;73.05;97732.41;5093504;28;20492;-38
2022/03/11 05:28:19;;;;;;;8.03;4.93;;;;;;;-5.56;72.64;97733.22;5093579;28;20865;-38
2022/03/11 05:30:46;;;;;;;17.63;6.17;;;;;;;-5.45;73.33;97735.03;5093773;28;20447;-37
2022/03/11 05:33:15;;;;;;;8.00;5.80;;;;;;;-5.48;72.38;97730.09;5093509;28;20443;-37
2022/03/11 05:35:43;;;;;;;11.73;6.60;;;;;;;-5.39;71.39;97747.53;5093828;28;20497;-37
2022/03/11 05:38:10;;;;;;;15.13;9.93;;;;;;;-5.35;72.30;97751.53;5093412;28;20453;-39
2022/03/11 05:40:40;;;;;;;19.00;6.23;;;;;;;-5.28;72.76;97751.09;5093730;28;20792;-37
2022/03/11 05:43:09;;;;;;;7.93;5.90;;;;;;;-5.25;72.23;97740.50;5093713;28;20423;-39
2022/03/11 05:45:37;;;;;;;9.87;4.77;;;;;;;-5.21;71.57;97747.09;5093116;28;20494;-37
2022/03/11 05:48:05;;;;;;;12.10;6.17;;;;;;;-5.19;70.98;97745.22;5093661;28;20838;-37
2022/03/11 05:50:33;;;;;;;9.27;5.10;;;;;;;-5.19;71.84;97750.41;5093327;28;20443;-37
2022/03/11 05:53:00;;;;;;;14.53;6.97;;;;;;;-5.16;70.59;97747.59;5093676;28;20443;-37
2022/03/11 05:55:28;;;;;;;9.40;4.33;;;;;;;-5.16;71.57;97740.66;5093640;28;20438;-37
2022/03/11 05:57:55;;;;;;;15.00;6.13;;;;;;;-5.13;71.06;97752.53;5075132;28;20448;-38
2022/03/11 06:00:22;;;;;;;9.97;5.67;;;;;;;-5.07;70.79;97746.91;5073079;28;20440;-37
2022/03/11 06:02:49;;;;;;;9.17;6.57;;;;;;;-4.96;70.44;97744.31;5073027;28;20454;-37
2022/03/11 06:05:17;;;;;;;14.50;7.23;;;;;;;-4.81;70.06;97759.66;5073076;28;20484;-38
2022/03/11 06:07:45;;;;;;;9.50;7.37;;;;;;;-4.40;70.25;97753.06;5073202;28;20513;-39
2022/03/11 06:10:13;;;;;;;22.53;8.67;;;;;;;-3.71;68.80;97745.84;5073010;28;20448;-38
2022/03/11 06:12:40;;;;;;;8.67;6.40;;;;;;;-3.06;64.38;97761.38;5072962;28;20530;-39
2022/03/11 06:15:08;;;;;;;14.33;7.07;;;;;;;-2.53;63.46;97758.66;5072987;28;20531;-37
2022/03/11 06:17:35;;;;;;;11.20;5.97;;;;;;;-2.27;60.37;97761.63;5072873;28;20432;-39
2022/03/11 06:20:03;;;;;;;8.00;5.30;;;;;;;-1.78;59.09;97764.34;5073296;28;20449;-37
2022/03/11 06:22:30;;;;;;;16.00;7.20;;;;;;;-1.50;58.14;97765.34;5072911;28;20435;-40
2022/03/11 06:24:59;;;;;;;11.33;5.13;;;;;;;-1.35;56.84;97765.75;5072821;28;20443;-40
2022/03/11 06:27:26;;;;;;;10.30;6.13;;;;;;;-1.30;57.94;97768.78;5072762;28;20491;-38
2022/03/11 06:29:54;;;;;;;24.83;9.93;;;;;;;-1.14;57.18;97770.00;5073111;28;20813;-39
2022/03/11 06:32:21;;;;;;;8.70;5.20;;;;;;;-1.08;55.65;97751.19;5075007;28;20443;-38
2022/03/11 06:34:49;;;;;;;13.07;6.97;;;;;;;-0.88;55.90;97773.69;5076471;28;20447;-39
2022/03/11 06:37:17;;;;;;;11.60;5.80;;;;;;;-0.94;54.69;97747.34;5076493;28;20447;-39
2022/03/11 06:39:44;;;;;;;9.10;6.17;;;;;;;-0.96;55.09;97757.91;5077442;28;20485;-39
2022/03/11 06:42:12;;;;;;;8.00;5.90;;;;;;;-0.93;54.87;97780.25;5097029;28;20447;-38
2022/03/11 06:44:40;;;;;;;29.93;9.50;;;;;;;-0.94;55.20;97770.81;5096733;28;20483;-38
2022/03/11 06:47:07;;;;;;;10.43;6.43;;;;;;;-1.15;55.39;97776.19;5096564;28;20475;-38
2022/03/11 06:49:34;;;;;;;9.70;5.67;;;;;;;-1.24;55.19;97773.44;5096606;28;20443;-38
2022/03/11 06:52:02;;;;;;;10.27;4.30;;;;;;;-1.58;54.71;97780.00;5096535;28;20442;-37
2022/03/11 06:54:29;;;;;;;15.27;6.10;;;;;;;-1.45;55.57;97768.34;5096492;28;20450;-37
2022/03/11 06:56:56;;;;;;;6.30;3.77;;;;;;;-1.01;56.03;97783.59;5096421;28;20439;-38
2022/03/11 06:59:24;;;;;;;19.27;7.50;;;;;;;-0.61;54.18;97782.53;5096773;28;20435;-39
2022/03/11 07:01:52;;;;;;;14.47;6.97;;;;;;;-0.69;53.51;97782.41;5096708;28;20451;-38
2022/03/11 07:04:19;;;;;;;8.60;4.60;;;;;;;-0.87;53.74;97777.91;5097185;28;20442;-37
2022/03/11 07:06:46;;;;;;;6.67;5.10;;;;;;;-0.70;52.43;97786.00;5096257;28;20487;-37
2022/03/11 07:09:14;;;;;;;9.23;5.57;;;;;;;-0.71;51.74;97784.34;5096263;28;20441;-38
2022/03/11 07:11:41;;;;;;;8.87;5.23;;;;;;;-0.56;51.99;97782.94;5096181;28;20446;-38
2022/03/11 07:14:08;;;;;;;13.97;5.67;;;;;;;-0.47;52.31;97782.09;5096158;28;20461;-38
2022/03/11 07:16:37;;;;;;;11.43;4.87;;;;;;;-0.69;52.94;97782.41;5096890;28;20455;-37
2022/03/11 07:19:04;;;;;;;18.00;6.77;;;;;;;-0.42;53.48;97784.25;5096046;28;20438;-37
2022/03/11 07:21:31;;;;;;;9.30;7.43;;;;;;;-0.34;52.00;97775.72;5096063;28;20446;-38
2022/03/11 07:23:58;;;;;;;14.97;8.30;;;;;;;-0.43;51.32;97787.81;5096849;28;20439;-37
2022/03/11 07:26:25;;;;;;;6.17;5.20;;;;;;;-0.32;51.47;97779.00;5095841;28;20528;-38
2022/03/11 07:28:53;;;;;;;12.20;5.77;;;;;;;-0.50;50.62;97786.75;5096124;28;20439;-38
2022/03/11 07:31:20;;;;;;;8.00;5.50;;;;;;;-0.36;50.70;97775.88;5096102;28;20801;-36
2022/03/11 07:33:49;;;;;;;8.30;4.80;;;;;;;-0.15;50.94;97783.47;5095797;28;20439;-37
2022/03/11 07:36:16;;;;;;;12.40;8.00;;;;;;;0.25;51.19;97781.47;5096035;28;20468;-37
2022/03/11 07:38:43;;;;;;;10.80;6.40;;;;;;;0.11;49.80;97775.78;5095729;28;20439;-40
2022/03/11 07:41:14;;;;;;;7.80;4.87;;;;;;;0.03;50.96;97772.25;5095508;28;20450;-37
2022/03/11 07:43:44;;;;;;;39.40;12.90;;;;;;;-0.06;49.70;97780.00;5095741;28;20428;-37
2022/03/11 07:46:12;;;;;;;18.93;5.97;;;;;;;0.01;48.49;97774.19;5095210;28;20475;-38
2022/03/11 07:48:39;;;;;;;15.73;7.50;;;;;;;-0.23;50.73;97778.97;5095519;28;20439;-39
2022/03/11 07:51:08;;;;;;;8.93;5.27;;;;;;;-0.42;50.79;97772.03;5095455;28;20443;-38
2022/03/11 07:53:36;;;;;;;10.77;4.87;;;;;;;-0.38;49.99;97763.94;5095344;28;20446;-39
2022/03/11 07:56:06;;;;;;;12.40;4.77;;;;;;;-0.29;48.36;97768.28;5095663;28;20446;-39
2022/03/11 07:58:33;;;;;;;18.37;9.80;;;;;;;0.00;49.88;97768.16;5094987;28;20451;-38
2022/03/11 08:01:01;;;;;;;10.00;6.27;;;;;;;0.54;50.46;97765.63;5095195;28;20439;-37
2022/03/11 08:03:28;;;;;;;11.83;5.00;;;;;;;0.93;48.20;97754.84;5095481;28;20465;-38
2022/03/11 08:05:55;;;;;;;20.97;7.57;;;;;;;0.73;47.65;97764.63;5095047;28;20439;-38
2022/03/11 08:08:24;;;;;;;13.07;6.80;;;;;;;1.01;48.73;97768.78;5094887;28;20493;-38
2022/03/11 08:10:52;;;;;;;9.20;5.87;;;;;;;1.23;47.40;97762.25;5094998;28;20446;-38
2022/03/11 08:13:19;;;;;;;11.27;6.73;;;;;;;1.11;48.67;97757.41;5095008;28;20469;-38
2022/03/11 08:15:47;;;;;;;10.73;7.10;;;;;;;0.97;45.38;97758.78;5094792;28;20450;-37
2022/03/11 08:18:14;;;;;;;7.00;3.87;;;;;;;0.74;45.13;97766.28;5094858;28;20446;-38
2022/03/11 08:20:42;;;;;;;6.37;4.13;;;;;;;0.17;46.59;97759.53;5094707;28;21001;-37
2022/03/11 08:23:10;;;;;;;16.90;5.93;;;;;;;-0.05;47.87;97745.06;5094704;28;20435;-38
2022/03/11 08:25:39;;;;;;;46.13;20.30;;;;;;;-0.08;47.42;97749.78;5094983;28;20814;-38
2022/03/11 08:28:10;;;;;;;12.73;5.83;;;;;;;0.06;47.99;97751.06;5094571;28;20487;-38
2022/03/11 08:30:38;;;;;;;13.70;8.80;;;;;;;0.27;48.18;97750.81;5094592;28;20427;-38
2022/03/11 08:33:06;;;;;;;7.83;4.60;;;;;;;0.32;48.89;97756.41;5094532;28;20446;-38
2022/03/11 08:35:33;;;;;;;10.20;5.33;;;;;;;0.68;49.64;97745.97;5094522;28;20445;-38
2022/03/11 08:38:03;;;;;;;10.40;6.57;;;;;;;1.07;49.73;97748.22;5094629;28;20450;-38
2022/03/11 08:40:31;;;;;;;8.10;4.97;;;;;;;1.47;48.93;97752.91;5094766;28;20512;-39
2022/03/11 08:43:00;;;;;;;18.57;4.90;;;;;;;1.66;48.76;97751.00;5094357;28;20439;-38
2022/03/11 08:45:27;;;;;;;7.47;4.93;;;;;;;1.72;47.33;97750.41;5094340;28;20868;-38
2022/03/11 08:47:54;;;;;;;9.90;4.20;;;;;;;1.76;44.93;97754.34;5094610;28;20850;-38
2022/03/11 08:50:22;;;;;;;7.27;6.00;;;;;;;1.56;44.55;97743.28;5093961;28;20461;-38
2022/03/11 08:52:49;;;;;;;12.77;7.03;;;;;;;1.28;48.09;97746.06;5094212;28;20446;-38
2022/03/11 08:55:17;;;;;;;14.63;6.97;;;;;;;1.14;47.52;97754.47;5093574;28;20439;-38
2022/03/11 08:57:49;;;;;;;4.77;3.93;;;;;;;0.93;47.09;97754.84;5094365;28;20802;-38
2022/03/11 09:00:19;;;;;;;10.30;7.27;;;;;;;0.74;47.04;97754.03;5093991;28;20774;-38
2022/03/11 09:02:47;;;;;;;12.03;5.70;;;;;;;0.51;47.92;97756.25;5094334;28;20451;-38
2022/03/11 09:05:15;;;;;;;4.40;3.67;;;;;;;0.05;48.08;97754.66;5094276;28;20443;-38
2022/03/11 09:07:42;;;;;;;6.50;3.53;;;;;;;-0.28;47.93;97759.47;5094124;28;20495;-38
2022/03/11 09:10:11;;;;;;;9.60;5.93;;;;;;;-0.52;48.65;97750.38;5093926;28;20813;-38
2022/03/11 09:12:39;;;;;;;13.20;5.60;;;;;;;-0.45;51.00;97748.84;5093795;28;20918;-39
2022/03/11 09:15:07;;;;;;;10.33;5.77;;;;;;;-0.52;48.74;97746.94;5094129;28;20816;-38
2022/03/11 09:17:36;;;;;;;24.13;9.13;;;;;;;-0.42;48.65;97740.72;5094092;28;20469;-38
2022/03/11 09:20:04;;;;;;;19.93;9.10;;;;;;;-0.48;50.90;97738.69;5094067;28;20957;-38
2022/03/11 09:22:31;;;;;;;16.70;7.50;;;;;;;-0.85;51.50;97736.06;5093762;28;20439;-37
2022/03/11 09:24:59;;;;;;;13.17;8.23;;;;;;;-1.06;51.49;97733.63;5093905;28;20469;-38
2022/03/11 09:27:27;;;;;;;13.23;8.30;;;;;;;-0.93;53.88;97713.28;5093556;28;20488;-38
2022/03/11 09:29:54;;;;;;;12.00;7.30;;;;;;;-0.43;52.87;97735.63;5093507;28;20530;-38
2022/03/11 09:32:21;;;;;;;10.23;6.90;;;;;;;-0.24;52.11;97735.56;5093891;28;20435;-38
2022/03/11 09:34:50;;;;;;;16.37;10.00;;;;;;;-0.59;49.47;97725.81;5093432;28;20482;-38
2022/03/11 09:37:17;;;;;;;15.10;6.63;;;;;;;-0.47;51.46;97724.69;5093814;28;20810;-38
2022/03/11 09:39:45;;;;;;;6.97;5.03;;;;;;;-0.30;52.53;97732.69;5093805;28;20456;-38
2022/03/11 09:42:12;;;;;;;15.33;6.70;;;;;;;-0.20;51.44;97730.88;5093426;28;20504;-38
2022/03/11 09:44:41;;;;;;;8.90;5.30;;;;;;;-0.22;49.67;97732.81;5093407;28;20475;-37
2022/03/11 09:47:09;;;;;;;7.93;5.07;;;;;;;-0.27;49.18;97733.25;5093554;28;20973;-37
2022/03/11 09:49:38;;;;;;;5.10;3.60;;;;;;;-0.42;49.40;97737.28;5093721;28;21059;-38
2022/03/11 09:52:07;;;;;;;6.33;4.10;;;;;;;-0.35;49.58;97727.91;5093668;28;20459;-37
2022/03/11 09:54:35;;;;;;;23.90;5.03;;;;;;;-0.33;51.60;97725.16;5093336;28;20439;-38
2022/03/11 09:57:02;;;;;;;11.83;5.73;;;;;;;-0.35;50.49;97721.88;5093280;28;20446;-37
2022/03/11 09:59:29;;;;;;;7.73;4.87;;;;;;;-0.36;49.96;97725.47;5093580;28;20470;-38
2022/03/11 10:01:57;;;;;;;10.60;5.30;;;;;;;-0.40;50.63;97724.94;5093344;28;20925;-38
2022/03/11 10:04:25;;;;;;;8.43;5.60;;;;;;;-0.03;49.20;97730.09;5093308;28;20942;-38
2022/03/11 10:06:54;;;;;;;8.80;4.37;;;;;;;0.10;48.65;97721.09;5094990;28;20447;-38
2022/03/11 10:09:33;;;;;;;6.97;4.30;;;;;;;0.44;50.75;97702.16;5097330;28;20438;-38
2022/03/11 10:12:05;;;;;;;7.90;4.67;;;;;;;0.74;50.28;97725.28;5097639;28;20450;-37
2022/03/11 10:14:35;;;;;;;7.87;6.20;;;;;;;0.78;51.27;97721.38;5097244;28;20431;-38
2022/03/11 10:17:04;;;;;;;11.97;5.50;;;;;;;0.80;49.17;97718.63;5097542;28;20427;-38
2022/03/11 10:19:31;;;;;;;8.83;4.67;;;;;;;0.70;47.62;97729.16;5097143;28;20450;-38
2022/03/11 10:22:01;;;;;;;11.23;4.63;;;;;;;0.33;47.48;97711.03;5097064;28;20438;-38
2022/03/11 10:24:28;;;;;;;7.60;5.17;;;;;;;-0.12;48.21;97701.44;5097023;28;20445;-38
2022/03/11 10:27:01;;;;;;;12.23;7.10;;;;;;;-0.04;52.08;97715.41;5097154;28;20550;-37
2022/03/11 10:29:32;;;;;;;4.70;4.10;;;;;;;0.19;52.08;97705.38;5097052;28;20455;-38
2022/03/11 10:32:00;;;;;;;10.90;7.47;;;;;;;0.49;51.50;97707.72;5096888;28;20514;-38
2022/03/11 10:34:29;;;;;;;15.03;7.27;;;;;;;0.62;50.51;97697.72;5079453;28;20444;-38
2022/03/11 10:36:57;;;;;;;10.60;5.17;;;;;;;0.65;51.43;97707.88;5076453;28;20450;-38
2022/03/11 10:39:26;;;;;;;19.47;7.30;;;;;;;0.71;52.21;97699.44;5076506;28;20450;-38
2022/03/11 10:41:54;;;;;;;7.73;5.37;;;;;;;0.79;51.94;97696.06;5076346;28;20443;-38
2022/03/11 10:44:26;;;;;;;19.53;9.00;;;;;;;0.93;52.07;97689.47;5076248;28;21530;-37
2022/03/11 10:46:54;;;;;;;7.00;4.83;;;;;;;0.93;52.19;97682.44;5076286;28;20448;-38
2022/03/11 10:49:26;;;;;;;9.97;5.90;;;;;;;1.12;51.74;97694.50;5076337;28;20935;-38
2022/03/11 10:51:55;;;;;;;8.00;5.53;;;;;;;1.08;50.07;97684.50;5076246;28;20448;-38
2022/03/11 10:54:26;;;;;;;9.83;5.60;;;;;;;1.12;49.65;97693.66;5076500;28;20444;-38
2022/03/11 10:56:54;;;;;;;14.50;6.37;;;;;;;1.10;47.01;97675.50;5076239;28;20876;-38
2022/03/11 10:59:28;;;;;;;31.90;23.07;;;;;;;1.14;49.84;97682.06;5076079;28;20443;-38
2022/03/11 11:01:57;;;;;;;7.23;5.90;;;;;;;1.16;49.58;97681.91;5080872;28;20443;-38
2022/03/11 11:04:25;;;;;;;14.03;6.70;;;;;;;1.11;49.69;97678.94;5096318;28;20443;-38
2022/03/11 11:06:52;;;;;;;16.97;7.60;;;;;;;1.17;50.92;97679.13;5096608;28;20450;-38
2022/03/11 11:09:22;;;;;;;12.93;6.07;;;;;;;1.27;50.32;97675.59;5096154;28;20486;-38
2022/03/11 11:11:51;;;;;;;11.37;6.53;;;;;;;1.24;50.37;97661.03;5096250;28;20443;-38
2022/03/11 11:14:18;;;;;;;13.23;7.33;;;;;;;1.66;48.65;97669.84;5096060;28;20496;-38
2022/03/11 11:16:49;;;;;;;17.27;8.70;;;;;;;1.50;48.70;97663.59;5095668;28;20453;-38
2022/03/11 11:19:17;;;;;;;8.10;4.70;;;;;;;1.37;47.95;97663.22;5095778;28;20496;-39
2022/03/11 11:21:47;;;;;;;12.07;6.87;;;;;;;1.32;48.70;97660.25;5096289;28;20450;-38
2022/03/11 11:24:16;;;;;;;6.73;4.27;;;;;;;1.32;48.40;97657.63;5096263;28;20510;-38
2022/03/11 11:26:46;;;;;;;12.60;5.67;;;;;;;1.28;48.51;97658.91;5095844;28;20453;-38
2022/03/11 11:29:17;;;;;;;8.53;4.20;;;;;;;1.19;45.93;97663.28;5095773;28;20486;-38
2022/03/11 11:31:47;;;;;;;8.27;4.97;;;;;;;1.06;45.58;97655.88;5095789;28;20439;-38
2022/03/11 11:34:25;;;;;;;8.00;3.90;;;;;;;1.02;47.71;97654.53;5096008;28;20439;-38